createdAt,value
2017-11-01T00:01:15.247Z,9.53
2017-11-01T00:03:43.885Z,9.30
2017-11-01T00:06:12.291Z,10.23
2017-11-01T00:08:40.004Z,9.57
2017-11-01T00:11:09.185Z,9.00
2017-11-01T00:13:37.586Z,10.90
2017-11-01T00:16:05.994Z,10.40
2017-11-01T00:18:34.424Z,10.07
2017-11-01T00:21:03.591Z,9.10
2017-11-01T00:23:32.004Z,9.57
2017-11-01T00:26:01.186Z,9.10
2017-11-01T00:28:29.586Z,9.83
2017-11-01T00:30:58.761Z,9.50
2017-11-01T00:33:27.182Z,8.53
2017-11-01T00:35:55.588Z,9.77
2017-11-01T00:38:23.989Z,10.00
2017-11-01T00:40:52.611Z,8.50
2017-11-01T00:43:21.012Z,9.60
2017-11-01T00:45:49.427Z,8.47
2017-11-01T00:48:17.845Z,9.07
2017-11-01T00:50:46.259Z,7.47
2017-11-01T00:53:14.319Z,7.67
2017-11-01T00:55:42.747Z,8.50
2017-11-01T00:58:11.937Z,8.40
2017-11-01T01:00:40.577Z,8.53
2017-11-01T01:03:09.000Z,8.47
2017-11-01T01:05:37.405Z,7.70
2017-11-01T01:08:05.808Z,7.47
2017-11-01T01:10:34.230Z,7.40
2017-11-01T01:13:02.630Z,6.87
2017-11-01T01:15:31.799Z,6.47
2017-11-01T01:18:00.226Z,6.40
2017-11-01T01:20:28.634Z,6.60
2017-11-01T01:22:57.045Z,7.30
2017-11-01T01:25:25.464Z,5.93
2017-11-01T01:27:53.873Z,5.80
2017-11-01T01:30:22.284Z,6.13
2017-11-01T01:32:51.121Z,6.33
2017-11-01T01:35:19.529Z,5.47
2017-11-01T01:37:47.587Z,5.70
2017-11-01T01:40:15.669Z,6.20
2017-11-01T01:42:44.945Z,5.60
2017-11-01T01:45:12.993Z,4.90
2017-11-01T01:47:41.416Z,5.13
2017-11-01T01:50:09.823Z,5.50
2017-11-01T01:52:38.993Z,5.27
2017-11-01T01:55:07.412Z,4.87
2017-11-01T01:57:36.390Z,4.80
2017-11-01T02:00:04.865Z,5.50
2017-11-01T02:02:33.573Z,4.77
2017-11-01T02:05:02.743Z,4.63
2017-11-01T02:07:31.142Z,4.60
2017-11-01T02:10:00.332Z,5.60
2017-11-01T02:12:30.144Z,5.70
2017-11-01T02:14:59.323Z,5.00
2017-11-01T02:17:27.750Z,4.17
2017-11-01T02:19:55.802Z,4.27
2017-11-01T02:22:23.518Z,4.17
2017-11-01T02:24:51.594Z,4.63
2017-11-01T02:27:19.306Z,4.40
2017-11-01T02:29:47.013Z,4.80
2017-11-01T02:32:14.753Z,4.80
2017-11-01T02:34:42.803Z,4.03
2017-11-01T02:37:10.515Z,4.90
2017-11-01T02:39:38.243Z,4.63
2017-11-01T02:42:05.946Z,4.43
2017-11-01T02:44:33.668Z,4.43
2017-11-01T02:47:01.741Z,4.17
2017-11-01T02:49:29.900Z,4.50
2017-11-01T02:51:57.610Z,4.97
2017-11-01T02:54:25.333Z,5.37
2017-11-01T02:56:54.010Z,5.70
2017-11-01T02:59:22.064Z,4.73
2017-11-01T03:01:49.791Z,4.23
2017-11-01T03:04:17.855Z,4.57
2017-11-01T03:06:45.561Z,4.50
2017-11-01T03:09:13.295Z,4.87
2017-11-01T03:11:41.779Z,4.70
2017-11-01T03:14:10.250Z,4.03
2017-11-01T03:16:37.986Z,5.10
2017-11-01T03:19:05.703Z,5.33
2017-11-01T03:21:33.416Z,4.60
2017-11-01T03:24:01.205Z,5.40
2017-11-01T03:26:29.683Z,4.93
2017-11-01T03:28:58.515Z,4.63
2017-11-01T03:31:26.579Z,4.83
2017-11-01T03:33:54.637Z,4.47
2017-11-01T03:36:22.350Z,4.63
2017-11-01T03:38:50.077Z,5.73
2017-11-01T03:41:17.791Z,4.73
2017-11-01T03:43:45.604Z,4.87
2017-11-01T03:46:13.333Z,4.50
2017-11-01T03:48:41.824Z,4.40
2017-11-01T03:51:10.652Z,5.00
2017-11-01T03:53:38.379Z,4.23
2017-11-01T03:56:06.447Z,5.43
2017-11-01T03:58:34.166Z,4.93
2017-11-01T04:01:01.907Z,5.10
2017-11-01T04:03:30.171Z,4.50
2017-11-01T04:05:57.880Z,4.50
2017-11-01T04:08:25.606Z,4.50
2017-11-01T04:10:53.327Z,4.90
2017-11-01T04:13:22.490Z,4.63
2017-11-01T04:15:50.907Z,4.80
2017-11-01T04:18:36.607Z,4.73
2017-11-01T04:21:05.025Z,4.80
2017-11-01T04:23:33.438Z,4.13
2017-11-01T04:26:02.051Z,4.40
2017-11-01T04:28:29.782Z,4.60
2017-11-01T04:30:58.262Z,4.50
2017-11-01T04:33:27.429Z,4.70
2017-11-01T04:35:55.161Z,4.97
2017-11-01T04:38:23.330Z,4.77
2017-11-01T04:40:51.077Z,4.73
2017-11-01T04:43:18.808Z,3.73
2017-11-01T04:45:48.042Z,4.57
2017-11-01T04:48:15.741Z,4.60
2017-11-01T04:50:43.461Z,3.40
2017-11-01T04:53:11.183Z,4.27
2017-11-01T04:55:42.311Z,3.27
2017-11-01T04:58:10.136Z,3.33
2017-11-01T05:00:43.753Z,3.80
2017-11-01T05:03:12.101Z,3.90
2017-11-01T05:05:40.657Z,4.20
2017-11-01T05:08:14.298Z,3.60
2017-11-01T05:10:42.010Z,4.03
2017-11-01T05:13:09.827Z,3.93
2017-11-01T05:15:37.553Z,3.70
2017-11-01T05:18:06.173Z,3.60
2017-11-01T05:20:33.886Z,3.53
2017-11-01T05:23:02.719Z,3.70
2017-11-01T05:25:36.361Z,4.13
2017-11-01T05:28:04.194Z,3.33
2017-11-01T05:30:31.922Z,3.60
2017-11-01T05:33:00.405Z,3.27
2017-11-01T05:35:30.841Z,3.30
2017-11-01T05:37:58.554Z,3.53
2017-11-01T05:40:26.277Z,3.20
2017-11-01T05:42:54.013Z,3.57
2017-11-01T05:45:22.491Z,2.87
2017-11-01T05:47:50.997Z,3.37
2017-11-01T05:50:19.071Z,3.23
2017-11-01T05:52:47.124Z,3.23
2017-11-01T05:55:15.598Z,3.83
2017-11-01T05:57:44.094Z,3.00
2017-11-01T06:00:11.804Z,3.07
2017-11-01T06:02:39.869Z,3.67
2017-11-01T06:05:07.808Z,3.40
2017-11-01T06:07:35.979Z,4.00
2017-11-01T06:10:03.682Z,3.47
2017-11-01T06:12:31.751Z,4.10
2017-11-01T06:14:59.452Z,4.00
2017-11-01T06:17:27.931Z,4.10
2017-11-01T06:19:56.007Z,3.70
2017-11-01T06:22:23.727Z,3.90
2017-11-01T06:24:51.456Z,2.90
2017-11-01T06:27:19.538Z,4.37
2017-11-01T06:29:47.254Z,3.60
2017-11-01T06:32:15.730Z,3.60
2017-11-01T06:34:44.650Z,3.90
2017-11-01T06:37:12.353Z,4.10
2017-11-01T06:39:40.073Z,2.87
2017-11-01T06:42:07.897Z,3.93
2017-11-01T06:44:35.618Z,3.47
2017-11-01T06:47:03.683Z,4.27
2017-11-01T06:49:31.403Z,3.63
2017-11-01T06:52:00.228Z,3.57
2017-11-01T06:54:28.622Z,3.90
2017-11-01T06:56:57.038Z,4.63
2017-11-01T06:59:25.854Z,3.83
2017-11-01T07:01:54.250Z,4.60
2017-11-01T07:04:22.330Z,3.73
2017-11-01T07:06:50.942Z,3.47
2017-11-01T07:09:19.353Z,3.50
2017-11-01T07:11:48.224Z,3.60
2017-11-01T07:14:16.629Z,3.90
2017-11-01T07:16:44.698Z,3.80
2017-11-01T07:19:13.141Z,3.67
2017-11-01T07:21:40.668Z,4.53
2017-11-01T07:24:08.502Z,3.23
2017-11-01T07:26:36.917Z,3.90
2017-11-01T07:29:05.320Z,4.10
2017-11-01T07:31:33.725Z,3.33
2017-11-01T07:34:02.147Z,3.43
2017-11-01T07:36:30.546Z,3.50
2017-11-01T07:38:58.942Z,4.27
2017-11-01T07:41:27.360Z,3.73
2017-11-01T07:43:55.770Z,4.30
2017-11-01T07:46:24.181Z,3.63
2017-11-01T07:48:53.370Z,4.00
2017-11-01T07:51:21.771Z,4.10
2017-11-01T07:53:50.426Z,3.60
2017-11-01T07:56:18.844Z,4.60
2017-11-01T07:58:47.254Z,4.30
2017-11-01T08:01:15.659Z,5.53
2017-11-01T08:03:44.934Z,3.73
2017-11-01T08:06:13.337Z,4.27
2017-11-01T08:08:41.757Z,4.23
2017-11-01T08:11:10.176Z,4.07
2017-11-01T08:13:38.582Z,5.03
2017-11-01T08:16:06.985Z,4.10
2017-11-01T08:18:36.171Z,5.30
2017-11-01T08:21:05.341Z,4.17
2017-11-01T08:23:33.759Z,4.30
2017-11-01T08:26:02.194Z,4.63
2017-11-01T08:28:30.596Z,3.73
2017-11-01T08:30:59.768Z,4.70
2017-11-01T08:33:28.185Z,4.37
2017-11-01T08:35:56.591Z,4.10
2017-11-01T08:38:24.997Z,4.30
2017-11-01T08:40:53.414Z,3.70
2017-11-01T08:43:22.582Z,4.67
2017-11-01T08:45:50.986Z,4.93
2017-11-01T08:48:20.170Z,4.60
2017-11-01T08:50:48.233Z,4.13
2017-11-01T08:53:16.640Z,4.37
2017-11-01T08:55:45.825Z,4.93
2017-11-01T08:58:15.032Z,4.30
2017-11-01T09:00:43.854Z,4.70
2017-11-01T09:03:11.932Z,4.80
2017-11-01T09:05:40.877Z,4.50
2017-11-01T09:08:10.059Z,4.00
2017-11-01T09:10:38.487Z,5.00
2017-11-01T09:13:06.893Z,4.73
2017-11-01T09:15:35.309Z,3.73
2017-11-01T09:18:04.656Z,4.53
2017-11-01T09:20:33.059Z,4.30
2017-11-01T09:23:01.455Z,4.53
2017-11-01T09:25:30.647Z,4.40
2017-11-01T09:27:59.065Z,4.40
2017-11-01T09:30:27.472Z,4.73
2017-11-01T09:32:55.891Z,3.90
2017-11-01T09:35:25.059Z,4.30
2017-11-01T09:37:53.628Z,4.43
2017-11-01T09:40:22.045Z,4.40
2017-11-01T09:42:50.455Z,3.67
2017-11-01T09:45:18.878Z,3.90
2017-11-01T09:47:47.302Z,3.40
2017-11-01T09:50:15.702Z,4.43
2017-11-01T09:52:44.123Z,4.27
2017-11-01T09:55:12.542Z,3.87
2017-11-01T09:57:40.951Z,3.73
2017-11-01T10:00:09.354Z,4.23
2017-11-01T10:02:37.774Z,3.83
2017-11-01T10:05:06.182Z,3.73
2017-11-01T10:07:34.586Z,4.60
2017-11-01T10:10:03.008Z,4.33
2017-11-01T10:12:31.231Z,3.10
2017-11-01T10:14:59.629Z,3.40
2017-11-01T10:17:28.057Z,3.87
2017-11-01T10:19:56.452Z,3.83
2017-11-01T10:22:24.874Z,4.03
2017-11-01T10:24:54.054Z,3.67
2017-11-01T10:27:22.453Z,4.20
2017-11-01T10:29:51.625Z,4.53
2017-11-01T10:32:20.048Z,5.33
2017-11-01T10:34:48.460Z,4.00
2017-11-01T10:37:16.863Z,4.40
2017-11-01T10:39:45.290Z,5.10
2017-11-01T10:42:13.690Z,4.80
2017-11-01T10:44:42.095Z,4.90
2017-11-01T10:47:12.027Z,4.80
2017-11-01T10:49:40.432Z,5.27
2017-11-01T10:52:08.841Z,4.60
2017-11-01T10:54:37.266Z,4.23
2017-11-01T10:57:06.438Z,5.30
2017-11-01T10:59:34.838Z,4.90
2017-11-01T11:02:03.268Z,4.80
2017-11-01T11:04:31.677Z,4.60
2017-11-01T11:07:00.082Z,5.03
2017-11-01T11:09:29.266Z,5.60
2017-11-01T11:11:57.672Z,4.70
2017-11-01T11:14:26.093Z,4.70
2017-11-01T11:16:54.522Z,4.53
2017-11-01T11:19:23.684Z,4.83
2017-11-01T11:21:52.087Z,4.43
2017-11-01T11:24:21.269Z,5.70
2017-11-01T11:26:49.674Z,4.60
2017-11-01T11:29:18.843Z,5.07
2017-11-01T11:31:47.279Z,4.80
2017-11-01T11:34:15.443Z,4.97
2017-11-01T11:36:43.847Z,5.00
2017-11-01T11:39:12.269Z,5.37
2017-11-01T11:41:41.439Z,4.97
2017-11-01T11:44:09.842Z,4.63
2017-11-01T11:46:39.022Z,5.37
2017-11-01T11:49:07.433Z,5.73
2017-11-01T11:51:35.838Z,6.10
2017-11-01T11:54:03.908Z,5.43
2017-11-01T11:56:31.966Z,5.17
2017-11-01T11:59:00.032Z,5.20
2017-11-01T12:01:28.446Z,6.10
2017-11-01T12:03:56.854Z,5.00
2017-11-01T12:06:25.377Z,6.10
2017-11-01T12:08:53.796Z,5.07
2017-11-01T12:11:22.209Z,5.47
2017-11-01T12:13:51.376Z,5.70
2017-11-01T12:16:21.759Z,5.90
2017-11-01T12:18:50.164Z,5.43
2017-11-01T12:21:17.874Z,6.43
2017-11-01T12:23:45.937Z,5.03
2017-11-01T12:26:14.769Z,4.80
2017-11-01T12:28:43.261Z,5.70
2017-11-01T12:31:11.920Z,5.80
2017-11-01T12:33:40.329Z,5.70
2017-11-01T12:36:08.729Z,5.00
2017-11-01T12:38:37.147Z,6.60
2017-11-01T12:41:05.550Z,6.20
2017-11-01T12:43:33.962Z,5.60
2017-11-01T12:46:02.410Z,5.27
2017-11-01T12:48:31.396Z,5.10
2017-11-01T12:50:59.802Z,5.47
2017-11-01T12:53:28.856Z,5.17
2017-11-01T12:55:57.266Z,6.30
2017-11-01T12:58:25.678Z,5.17
2017-11-01T13:00:54.868Z,6.70
2017-11-01T13:03:24.037Z,5.83
2017-11-01T13:05:52.442Z,6.80
2017-11-01T13:08:21.692Z,5.53
2017-11-01T13:10:50.106Z,8.50
2017-11-01T13:13:18.514Z,8.37
2017-11-01T13:15:46.946Z,9.63
2017-11-01T13:18:15.363Z,6.73
2017-11-01T13:20:44.533Z,5.90
2017-11-01T13:23:12.960Z,6.23
2017-11-01T13:25:41.362Z,5.57
2017-11-01T13:28:09.413Z,6.30
2017-11-01T13:30:37.847Z,6.37
2017-11-01T13:33:06.271Z,6.33
2017-11-01T13:35:34.671Z,6.60
2017-11-01T13:38:03.319Z,6.10
2017-11-01T13:40:31.726Z,5.80
2017-11-01T13:43:00.135Z,4.73
2017-11-01T13:45:28.558Z,4.53
2017-11-01T13:47:56.967Z,5.03
2017-11-01T13:50:25.374Z,4.60
2017-11-01T13:52:53.808Z,4.63
2017-11-01T13:55:22.224Z,5.23
2017-11-01T13:57:50.635Z,4.20
2017-11-01T14:00:19.246Z,4.10
2017-11-01T14:02:47.669Z,4.67
2017-11-01T14:05:16.080Z,4.37
2017-11-01T14:07:45.500Z,4.23
2017-11-01T14:10:13.923Z,3.63
2017-11-01T14:12:42.339Z,3.97
2017-11-01T14:15:11.872Z,3.20
2017-11-01T14:17:40.326Z,3.57
2017-11-01T14:20:08.734Z,3.00
2017-11-01T14:22:37.168Z,2.73
2017-11-01T14:25:06.348Z,2.70
2017-11-01T14:27:34.764Z,2.80
2017-11-01T14:30:03.192Z,2.67
2017-11-01T14:32:31.623Z,3.33
2017-11-01T14:35:00.035Z,2.47
2017-11-01T14:37:28.459Z,2.73
2017-11-01T14:39:57.644Z,3.10
2017-11-01T14:42:26.835Z,2.90
2017-11-01T14:44:55.266Z,3.03
2017-11-01T14:47:23.675Z,2.40
2017-11-01T14:49:52.090Z,2.10
2017-11-01T14:52:21.293Z,2.20
2017-11-01T14:54:50.466Z,2.90
2017-11-01T14:57:19.805Z,2.43
2017-11-01T14:59:48.242Z,3.50
2017-11-01T15:02:17.414Z,2.90
2017-11-01T15:04:45.818Z,2.50
2017-11-01T15:07:14.265Z,2.47
2017-11-01T15:09:42.678Z,2.10
2017-11-01T15:12:11.098Z,2.80
2017-11-01T15:14:40.202Z,2.33
2017-11-01T15:17:08.614Z,2.27
2017-11-01T15:19:37.027Z,2.60
2017-11-01T15:22:06.252Z,2.00
2017-11-01T15:24:33.975Z,2.70
2017-11-01T15:27:03.149Z,2.80
2017-11-01T15:29:32.061Z,2.30
2017-11-01T15:32:00.467Z,2.20
2017-11-01T15:34:28.924Z,3.10
2017-11-01T15:36:58.137Z,2.13
2017-11-01T15:39:27.298Z,3.00
2017-11-01T15:41:55.702Z,2.20
2017-11-01T15:44:25.081Z,2.23
2017-11-01T15:46:53.477Z,2.87
2017-11-01T15:49:22.659Z,2.97
2017-11-01T15:51:51.093Z,2.13
2017-11-01T15:54:19.514Z,1.70
2017-11-01T15:56:47.921Z,2.40
2017-11-01T15:59:17.105Z,1.87
2017-11-01T16:01:45.590Z,2.73
2017-11-01T16:04:14.763Z,2.83
2017-11-01T16:06:43.178Z,2.07
2017-11-01T16:09:11.584Z,2.20
2017-11-01T16:11:39.995Z,2.93
2017-11-01T16:14:08.414Z,2.47
2017-11-01T16:16:36.817Z,2.90
2017-11-01T16:19:05.226Z,2.87
2017-11-01T16:21:33.642Z,3.00
2017-11-01T16:24:02.065Z,2.73
2017-11-01T16:26:30.489Z,2.87
2017-11-01T16:28:59.706Z,3.23
2017-11-01T16:31:27.424Z,3.57
2017-11-01T16:33:55.152Z,3.50
2017-11-01T16:36:23.918Z,2.93
2017-11-01T16:38:52.349Z,2.93
2017-11-01T16:41:20.636Z,2.47
2017-11-01T16:43:49.996Z,2.63
2017-11-01T16:46:18.403Z,3.60
2017-11-01T16:48:46.807Z,3.33
2017-11-01T16:51:16.225Z,3.30
2017-11-01T16:53:44.632Z,3.03
2017-11-01T16:56:13.049Z,3.30
2017-11-01T16:58:41.639Z,3.80
2017-11-01T17:01:10.061Z,3.83
2017-11-01T17:03:39.123Z,4.20
2017-11-01T17:06:08.335Z,4.10
2017-11-01T17:08:36.048Z,3.80
2017-11-01T17:11:04.506Z,3.73
2017-11-01T17:13:32.839Z,4.40
2017-11-01T17:16:02.011Z,4.10
2017-11-01T17:18:30.410Z,4.00
2017-11-01T17:20:59.847Z,3.17
2017-11-01T17:23:28.254Z,4.27
2017-11-01T17:25:56.654Z,4.10
2017-11-01T17:28:25.090Z,3.70
2017-11-01T17:30:53.502Z,4.40
2017-11-01T17:33:21.902Z,4.23
2017-11-01T17:35:51.238Z,5.17
2017-11-01T17:38:19.647Z,5.23
2017-11-01T17:40:48.322Z,4.67
2017-11-01T17:43:16.779Z,5.27
2017-11-01T17:45:45.178Z,6.27
2017-11-01T17:48:13.596Z,8.67
2017-11-01T17:50:42.786Z,7.20
2017-11-01T17:53:11.191Z,6.50
2017-11-01T17:55:40.359Z,6.60
2017-11-01T17:58:08.791Z,6.50
2017-11-01T18:00:37.209Z,7.07
2017-11-01T18:03:05.635Z,6.67
2017-11-01T18:05:34.063Z,6.67
2017-11-01T18:08:02.474Z,7.80
2017-11-01T18:10:31.637Z,7.23
2017-11-01T18:13:00.363Z,6.70
2017-11-01T18:15:29.543Z,6.73
2017-11-01T18:17:58.760Z,7.10
2017-11-01T18:20:27.198Z,6.60
2017-11-01T18:22:55.624Z,7.63
2017-11-01T18:25:24.043Z,6.80
2017-11-01T18:27:53.289Z,6.80
2017-11-01T18:30:22.501Z,7.60
2017-11-01T18:32:51.144Z,8.00
2017-11-01T18:35:19.613Z,7.60
2017-11-01T18:37:48.043Z,7.20
2017-11-01T18:40:16.455Z,7.93
2017-11-01T18:42:46.025Z,7.17
2017-11-01T18:45:14.472Z,5.77
2017-11-01T18:47:42.921Z,6.17
2017-11-01T18:50:11.490Z,6.40
2017-11-01T18:52:39.236Z,6.07
2017-11-01T18:55:07.671Z,6.30
2017-11-01T18:57:36.305Z,8.47
2017-11-01T19:00:04.370Z,8.17
2017-11-01T19:02:33.050Z,6.50
2017-11-01T19:05:01.508Z,7.10
2017-11-01T19:07:30.701Z,6.30
2017-11-01T19:09:59.892Z,6.43
2017-11-01T19:12:29.079Z,6.30
2017-11-01T19:14:57.487Z,6.60
2017-11-01T19:17:26.675Z,6.57
2017-11-01T19:19:55.865Z,7.20
2017-11-01T19:22:25.050Z,7.00
2017-11-01T19:24:53.465Z,6.90
2017-11-01T19:27:21.887Z,6.57
2017-11-01T19:29:50.299Z,7.17
2017-11-01T19:32:19.487Z,7.23
2017-11-01T19:34:48.725Z,7.53
2017-11-01T19:37:17.132Z,6.20
2017-11-01T19:39:45.559Z,6.33
2017-11-01T19:42:14.758Z,5.63
2017-11-01T19:44:43.165Z,6.97
2017-11-01T19:47:11.583Z,6.60
2017-11-01T19:49:40.215Z,7.03
2017-11-01T19:52:08.635Z,6.93
2017-11-01T19:54:37.052Z,5.83
2017-11-01T19:57:06.250Z,7.40
2017-11-01T19:59:34.665Z,7.10
2017-11-01T20:02:03.090Z,6.73
2017-11-01T20:04:32.505Z,8.10
2017-11-01T20:07:01.732Z,7.20
2017-11-01T20:09:30.164Z,8.07
2017-11-01T20:11:58.597Z,7.70
2017-11-01T20:14:27.017Z,7.43
2017-11-01T20:16:55.422Z,7.00
2017-11-01T20:19:23.878Z,7.10
2017-11-01T20:21:52.300Z,6.97
2017-11-01T20:24:20.723Z,7.50
2017-11-01T20:26:49.147Z,7.40
2017-11-01T20:29:17.551Z,7.83
2017-11-01T20:31:45.960Z,7.43
2017-11-01T20:34:14.388Z,7.10
2017-11-01T20:36:42.874Z,8.27
2017-11-01T20:39:11.285Z,7.63
2017-11-01T20:41:39.921Z,7.50
2017-11-01T20:44:08.415Z,8.20
2017-11-01T20:46:36.834Z,7.17
2017-11-01T20:49:05.292Z,8.50
2017-11-01T20:51:33.703Z,8.03
2017-11-01T20:54:02.116Z,7.17
2017-11-01T20:56:30.550Z,8.40
2017-11-01T20:58:58.958Z,9.00
2017-11-01T21:01:28.137Z,8.83
2017-11-01T21:03:56.210Z,8.60
2017-11-01T21:06:26.352Z,8.63
2017-11-01T21:08:54.836Z,8.00
2017-11-01T21:11:23.265Z,8.67
2017-11-01T21:13:51.673Z,8.90
2017-11-01T21:16:20.846Z,9.27
2017-11-01T21:18:49.275Z,8.80
2017-11-01T21:21:17.702Z,9.37
2017-11-01T21:23:45.920Z,9.40
2017-11-01T21:26:14.520Z,9.47
2017-11-01T21:28:43.102Z,10.20
2017-11-01T21:31:11.367Z,9.40
2017-11-01T21:33:39.802Z,8.40
2017-11-01T21:36:08.023Z,8.37
2017-11-01T21:38:36.450Z,8.97
2017-11-01T21:41:04.883Z,9.60
2017-11-01T21:43:33.294Z,8.97
2017-11-01T21:46:01.710Z,8.97
2017-11-01T21:48:30.898Z,8.90
2017-11-01T21:51:00.077Z,8.27
2017-11-01T21:53:28.482Z,7.93
2017-11-01T21:55:58.019Z,8.67
2017-11-01T21:58:26.426Z,9.63
2017-11-01T22:00:54.844Z,8.00
2017-11-01T22:03:24.022Z,9.47
2017-11-01T22:05:52.428Z,8.63
2017-11-01T22:08:21.651Z,8.93
2017-11-01T22:10:50.091Z,8.50
2017-11-01T22:13:18.504Z,8.43
2017-11-01T22:15:46.913Z,8.40
2017-11-01T22:18:15.329Z,7.77
2017-11-01T22:20:44.509Z,8.90
2017-11-01T22:23:12.908Z,8.47
2017-11-01T22:25:42.097Z,9.07
2017-11-01T22:28:11.283Z,8.33
2017-11-01T22:30:39.691Z,8.17
2017-11-01T22:33:08.113Z,8.03
2017-11-01T22:35:36.528Z,8.43
2017-11-01T22:38:05.357Z,8.30
2017-11-01T22:40:33.779Z,8.67
2017-11-01T22:43:02.195Z,8.83
2017-11-01T22:45:31.249Z,8.83
2017-11-01T22:47:59.682Z,9.40
2017-11-01T22:50:28.090Z,9.67
2017-11-01T22:52:56.515Z,9.60
2017-11-01T22:55:25.702Z,9.47
2017-11-01T22:57:54.862Z,9.20
2017-11-01T23:00:23.279Z,8.10
2017-11-01T23:02:52.464Z,8.70
2017-11-01T23:05:20.875Z,8.97
2017-11-01T23:07:49.282Z,8.47
2017-11-01T23:10:17.705Z,8.67
2017-11-01T23:12:46.889Z,8.43
2017-11-01T23:15:15.290Z,8.27
2017-11-01T23:17:44.540Z,7.17
2017-11-01T23:20:12.938Z,7.40
2017-11-01T23:22:41.353Z,6.77
2017-11-01T23:25:09.782Z,6.17
2017-11-01T23:27:38.195Z,6.00
2017-11-01T23:30:07.153Z,5.33
2017-11-01T23:32:35.571Z,5.47
2017-11-01T23:35:04.246Z,5.93
2017-11-01T23:37:34.661Z,6.77
2017-11-01T23:40:03.588Z,6.70
2017-11-01T23:42:32.010Z,6.77
2017-11-01T23:45:00.417Z,7.97
2017-11-01T23:47:29.415Z,7.20
2017-11-01T23:49:58.654Z,7.70
2017-11-01T23:52:27.067Z,7.70
2017-11-01T23:54:55.477Z,7.43
2017-11-01T23:57:24.631Z,7.73
2017-11-01T23:59:53.035Z,6.33
